sensor_id;sensor_type;location;lat;lon;timestamp;P1;durP1;ratioP1;P2;durP2;ratioP2
12968;SDS011;6549;53.128;8.182;2023-05-07T00:01:56;25.67;;;17.60;;
12968;SDS011;6549;53.128;8.182;2023-05-07T00:04:56;24.67;;;17.50;;
12968;SDS011;6549;53.128;8.182;2023-05-07T00:07:57;26.10;;;18.40;;
12968;SDS011;6549;53.128;8.182;2023-05-07T00:11:03;23.05;;;16.60;;
12968;SDS011;6549;53.128;8.182;2023-05-07T00:14:04;27.88;;;16.95;;
12968;SDS011;6549;53.128;8.182;2023-05-07T00:17:04;26.25;;;17.75;;
12968;SDS011;6549;53.128;8.182;2023-05-07T00:20:05;26.05;;;16.70;;
12968;SDS011;6549;53.128;8.182;2023-05-07T00:23:06;27.83;;;18.35;;
12968;SDS011;6549;53.128;8.182;2023-05-07T00:26:06;27.13;;;19.08;;
12968;SDS011;6549;53.128;8.182;2023-05-07T00:29:06;28.13;;;19.50;;
12968;SDS011;6549;53.128;8.182;2023-05-07T00:32:07;24.58;;;17.75;;
12968;SDS011;6549;53.128;8.182;2023-05-07T00:35:08;28.15;;;18.75;;
12968;SDS011;6549;53.128;8.182;2023-05-07T00:38:08;27.60;;;17.70;;
12968;SDS011;6549;53.128;8.182;2023-05-07T00:41:09;27.08;;;17.88;;
12968;SDS011;6549;53.128;8.182;2023-05-07T00:44:09;27.55;;;18.52;;
12968;SDS011;6549;53.128;8.182;2023-05-07T00:47:09;28.88;;;19.63;;
12968;SDS011;6549;53.128;8.182;2023-05-07T00:50:10;31.63;;;19.73;;
12968;SDS011;6549;53.128;8.182;2023-05-07T00:53:12;27.27;;;19.50;;
12968;SDS011;6549;53.128;8.182;2023-05-07T00:56:12;31.52;;;19.50;;
12968;SDS011;6549;53.128;8.182;2023-05-07T00:59:13;29.88;;;19.33;;
12968;SDS011;6549;53.128;8.182;2023-05-07T01:02:13;28.73;;;19.38;;
12968;SDS011;6549;53.128;8.182;2023-05-07T01:05:14;29.55;;;19.58;;
12968;SDS011;6549;53.128;8.182;2023-05-07T01:08:17;25.75;;;17.83;;
12968;SDS011;6549;53.128;8.182;2023-05-07T01:11:18;28.63;;;19.40;;
12968;SDS011;6549;53.128;8.182;2023-05-07T01:14:20;26.90;;;18.67;;
12968;SDS011;6549;53.128;8.182;2023-05-07T01:17:20;26.27;;;18.63;;
12968;SDS011;6549;53.128;8.182;2023-05-07T01:20:22;25.17;;;17.73;;
12968;SDS011;6549;53.128;8.182;2023-05-07T01:23:23;26.42;;;17.83;;
12968;SDS011;6549;53.128;8.182;2023-05-07T01:26:23;24.48;;;17.48;;
12968;SDS011;6549;53.128;8.182;2023-05-07T01:29:23;27.50;;;18.73;;
12968;SDS011;6549;53.128;8.182;2023-05-07T01:32:27;26.90;;;18.55;;
12968;SDS011;6549;53.128;8.182;2023-05-07T01:35:34;24.50;;;17.92;;
12968;SDS011;6549;53.128;8.182;2023-05-07T01:38:38;24.60;;;17.88;;
12968;SDS011;6549;53.128;8.182;2023-05-07T01:41:41;25.13;;;17.92;;
12968;SDS011;6549;53.128;8.182;2023-05-07T01:44:43;27.98;;;19.88;;
12968;SDS011;6549;53.128;8.182;2023-05-07T01:47:43;24.55;;;17.67;;
12968;SDS011;6549;53.128;8.182;2023-05-07T01:50:44;25.98;;;17.75;;
12968;SDS011;6549;53.128;8.182;2023-05-07T01:53:44;25.02;;;18.30;;
12968;SDS011;6549;53.128;8.182;2023-05-07T01:56:47;23.55;;;17.70;;
12968;SDS011;6549;53.128;8.182;2023-05-07T01:59:48;26.17;;;18.27;;
12968;SDS011;6549;53.128;8.182;2023-05-07T02:02:49;23.00;;;17.40;;
12968;SDS011;6549;53.128;8.182;2023-05-07T02:05:49;23.33;;;17.50;;
12968;SDS011;6549;53.128;8.182;2023-05-07T02:08:49;22.70;;;17.77;;
12968;SDS011;6549;53.128;8.182;2023-05-07T02:11:50;22.85;;;17.17;;
12968;SDS011;6549;53.128;8.182;2023-05-07T02:14:50;22.77;;;16.65;;
12968;SDS011;6549;53.128;8.182;2023-05-07T02:18:07;23.67;;;17.02;;
12968;SDS011;6549;53.128;8.182;2023-05-07T02:21:09;22.02;;;16.13;;
12968;SDS011;6549;53.128;8.182;2023-05-07T02:24:09;24.48;;;17.75;;
12968;SDS011;6549;53.128;8.182;2023-05-07T02:27:09;23.33;;;17.10;;
12968;SDS011;6549;53.128;8.182;2023-05-07T02:30:10;23.00;;;16.70;;
12968;SDS011;6549;53.128;8.182;2023-05-07T02:33:10;24.23;;;17.55;;
12968;SDS011;6549;53.128;8.182;2023-05-07T02:36:12;21.75;;;16.85;;
12968;SDS011;6549;53.128;8.182;2023-05-07T02:39:12;23.50;;;16.58;;
12968;SDS011;6549;53.128;8.182;2023-05-07T02:42:13;24.65;;;17.90;;
12968;SDS011;6549;53.128;8.182;2023-05-07T02:45:13;25.83;;;18.73;;
12968;SDS011;6549;53.128;8.182;2023-05-07T02:48:14;24.70;;;18.17;;
12968;SDS011;6549;53.128;8.182;2023-05-07T02:51:16;22.85;;;17.30;;
12968;SDS011;6549;53.128;8.182;2023-05-07T02:54:19;21.88;;;17.00;;
12968;SDS011;6549;53.128;8.182;2023-05-07T02:57:19;23.10;;;17.73;;
12968;SDS011;6549;53.128;8.182;2023-05-07T03:00:20;22.88;;;16.77;;
12968;SDS011;6549;53.128;8.182;2023-05-07T03:03:21;22.35;;;15.50;;
12968;SDS011;6549;53.128;8.182;2023-05-07T03:06:21;22.30;;;15.82;;
12968;SDS011;6549;53.128;8.182;2023-05-07T03:09:21;22.58;;;16.38;;
12968;SDS011;6549;53.128;8.182;2023-05-07T03:12:22;22.08;;;15.95;;
12968;SDS011;6549;53.128;8.182;2023-05-07T03:15:22;22.50;;;14.93;;
12968;SDS011;6549;53.128;8.182;2023-05-07T03:18:22;20.25;;;14.82;;
12968;SDS011;6549;53.128;8.182;2023-05-07T03:21:23;20.42;;;15.75;;
12968;SDS011;6549;53.128;8.182;2023-05-07T03:24:23;24.40;;;16.15;;
12968;SDS011;6549;53.128;8.182;2023-05-07T03:27:23;21.13;;;14.38;;
12968;SDS011;6549;53.128;8.182;2023-05-07T03:30:24;22.58;;;15.13;;
12968;SDS011;6549;53.128;8.182;2023-05-07T03:33:24;22.88;;;14.02;;
12968;SDS011;6549;53.128;8.182;2023-05-07T03:36:24;21.58;;;14.45;;
12968;SDS011;6549;53.128;8.182;2023-05-07T03:39:26;24.95;;;15.55;;
12968;SDS011;6549;53.128;8.182;2023-05-07T03:42:27;24.42;;;16.33;;
12968;SDS011;6549;53.128;8.182;2023-05-07T03:45:28;23.98;;;16.02;;
12968;SDS011;6549;53.128;8.182;2023-05-07T03:48:28;22.48;;;15.90;;
12968;SDS011;6549;53.128;8.182;2023-05-07T03:51:29;24.45;;;15.43;;
12968;SDS011;6549;53.128;8.182;2023-05-07T03:54:30;21.13;;;14.55;;
12968;SDS011;6549;53.128;8.182;2023-05-07T03:57:30;21.73;;;15.07;;
12968;SDS011;6549;53.128;8.182;2023-05-07T04:00:31;21.63;;;15.50;;
12968;SDS011;6549;53.128;8.182;2023-05-07T04:06:34;24.67;;;14.33;;
12968;SDS011;6549;53.128;8.182;2023-05-07T04:09:34;22.40;;;15.43;;
12968;SDS011;6549;53.128;8.182;2023-05-07T04:12:34;25.27;;;16.00;;
12968;SDS011;6549;53.128;8.182;2023-05-07T04:15:35;22.85;;;14.70;;
12968;SDS011;6549;53.128;8.182;2023-05-07T04:18:36;22.65;;;14.45;;
12968;SDS011;6549;53.128;8.182;2023-05-07T04:21:36;22.83;;;14.95;;
12968;SDS011;6549;53.128;8.182;2023-05-07T04:24:36;22.02;;;14.27;;
12968;SDS011;6549;53.128;8.182;2023-05-07T04:27:37;24.25;;;15.55;;
12968;SDS011;6549;53.128;8.182;2023-05-07T04:30:37;21.35;;;14.38;;
12968;SDS011;6549;53.128;8.182;2023-05-07T04:33:38;20.88;;;13.93;;
12968;SDS011;6549;53.128;8.182;2023-05-07T04:36:38;26.30;;;14.82;;
12968;SDS011;6549;53.128;8.182;2023-05-07T04:39:39;24.05;;;15.13;;
12968;SDS011;6549;53.128;8.182;2023-05-07T04:42:39;23.50;;;14.35;;
12968;SDS011;6549;53.128;8.182;2023-05-07T04:45:40;24.10;;;14.60;;
12968;SDS011;6549;53.128;8.182;2023-05-07T04:48:41;23.27;;;14.77;;
12968;SDS011;6549;53.128;8.182;2023-05-07T04:51:41;24.15;;;14.25;;
12968;SDS011;6549;53.128;8.182;2023-05-07T04:54:42;21.27;;;14.48;;
12968;SDS011;6549;53.128;8.182;2023-05-07T04:57:43;22.05;;;14.30;;
12968;SDS011;6549;53.128;8.182;2023-05-07T05:00:43;20.27;;;13.55;;
12968;SDS011;6549;53.128;8.182;2023-05-07T05:03:43;24.17;;;14.52;;
12968;SDS011;6549;53.128;8.182;2023-05-07T05:06:44;23.55;;;13.95;;
12968;SDS011;6549;53.128;8.182;2023-05-07T05:09:44;23.13;;;15.80;;
12968;SDS011;6549;53.128;8.182;2023-05-07T05:12:44;22.58;;;14.70;;
12968;SDS011;6549;53.128;8.182;2023-05-07T05:15:45;23.23;;;15.40;;
12968;SDS011;6549;53.128;8.182;2023-05-07T05:18:45;20.55;;;14.13;;
12968;SDS011;6549;53.128;8.182;2023-05-07T05:21:46;23.98;;;15.02;;
12968;SDS011;6549;53.128;8.182;2023-05-07T05:24:46;24.08;;;15.25;;
12968;SDS011;6549;53.128;8.182;2023-05-07T05:27:46;23.23;;;14.93;;
12968;SDS011;6549;53.128;8.182;2023-05-07T05:30:47;25.23;;;16.05;;
12968;SDS011;6549;53.128;8.182;2023-05-07T05:33:47;25.55;;;15.80;;
12968;SDS011;6549;53.128;8.182;2023-05-07T05:36:47;23.90;;;15.80;;
12968;SDS011;6549;53.128;8.182;2023-05-07T05:39:48;25.58;;;16.23;;
12968;SDS011;6549;53.128;8.182;2023-05-07T05:42:48;23.80;;;15.45;;
12968;SDS011;6549;53.128;8.182;2023-05-07T05:45:48;24.73;;;16.55;;
12968;SDS011;6549;53.128;8.182;2023-05-07T05:48:48;24.85;;;16.33;;
12968;SDS011;6549;53.128;8.182;2023-05-07T05:51:49;24.85;;;15.35;;
12968;SDS011;6549;53.128;8.182;2023-05-07T05:54:49;22.92;;;15.10;;
12968;SDS011;6549;53.128;8.182;2023-05-07T05:57:50;23.63;;;15.70;;
12968;SDS011;6549;53.128;8.182;2023-05-07T06:00:50;23.33;;;14.77;;
12968;SDS011;6549;53.128;8.182;2023-05-07T06:03:52;21.23;;;14.25;;
12968;SDS011;6549;53.128;8.182;2023-05-07T06:06:52;21.52;;;14.48;;
12968;SDS011;6549;53.128;8.182;2023-05-07T06:09:52;20.27;;;14.00;;
12968;SDS011;6549;53.128;8.182;2023-05-07T06:12:53;23.02;;;14.57;;
12968;SDS011;6549;53.128;8.182;2023-05-07T06:15:53;21.77;;;14.95;;
12968;SDS011;6549;53.128;8.182;2023-05-07T06:18:53;21.15;;;14.95;;
12968;SDS011;6549;53.128;8.182;2023-05-07T06:21:54;21.10;;;13.55;;
12968;SDS011;6549;53.128;8.182;2023-05-07T06:24:56;20.70;;;13.60;;
12968;SDS011;6549;53.128;8.182;2023-05-07T06:27:56;19.27;;;13.13;;
12968;SDS011;6549;53.128;8.182;2023-05-07T06:31:10;18.75;;;12.45;;
12968;SDS011;6549;53.128;8.182;2023-05-07T06:34:17;19.15;;;12.50;;
12968;SDS011;6549;53.128;8.182;2023-05-07T06:37:17;20.33;;;12.75;;
12968;SDS011;6549;53.128;8.182;2023-05-07T06:40:18;18.35;;;12.25;;
12968;SDS011;6549;53.128;8.182;2023-05-07T06:43:18;18.80;;;12.55;;
12968;SDS011;6549;53.128;8.182;2023-05-07T06:46:18;18.98;;;12.45;;
12968;SDS011;6549;53.128;8.182;2023-05-07T06:49:18;17.02;;;12.80;;
12968;SDS011;6549;53.128;8.182;2023-05-07T06:52:19;20.50;;;13.48;;
12968;SDS011;6549;53.128;8.182;2023-05-07T06:55:19;19.10;;;13.05;;
12968;SDS011;6549;53.128;8.182;2023-05-07T06:58:20;18.95;;;12.93;;
12968;SDS011;6549;53.128;8.182;2023-05-07T07:01:20;19.02;;;13.30;;
12968;SDS011;6549;53.128;8.182;2023-05-07T07:04:20;19.35;;;13.10;;
12968;SDS011;6549;53.128;8.182;2023-05-07T07:07:22;19.38;;;12.48;;
12968;SDS011;6549;53.128;8.182;2023-05-07T07:10:23;18.35;;;13.23;;
12968;SDS011;6549;53.128;8.182;2023-05-07T07:13:23;18.42;;;12.77;;
12968;SDS011;6549;53.128;8.182;2023-05-07T07:16:24;14.00;;;11.05;;
12968;SDS011;6549;53.128;8.182;2023-05-07T07:19:25;16.70;;;12.00;;
12968;SDS011;6549;53.128;8.182;2023-05-07T07:22:26;16.42;;;11.50;;
12968;SDS011;6549;53.128;8.182;2023-05-07T07:25:26;15.35;;;10.90;;
12968;SDS011;6549;53.128;8.182;2023-05-07T07:28:26;15.35;;;11.07;;
12968;SDS011;6549;53.128;8.182;2023-05-07T07:31:27;15.35;;;10.57;;
12968;SDS011;6549;53.128;8.182;2023-05-07T07:34:27;15.10;;;11.18;;
12968;SDS011;6549;53.128;8.182;2023-05-07T07:37:27;15.38;;;11.63;;
12968;SDS011;6549;53.128;8.182;2023-05-07T07:40:28;12.75;;;10.18;;
12968;SDS011;6549;53.128;8.182;2023-05-07T07:43:28;16.75;;;11.82;;
12968;SDS011;6549;53.128;8.182;2023-05-07T07:46:28;13.90;;;10.68;;
12968;SDS011;6549;53.128;8.182;2023-05-07T07:49:29;15.52;;;11.10;;
12968;SDS011;6549;53.128;8.182;2023-05-07T07:52:29;13.45;;;9.63;;
12968;SDS011;6549;53.128;8.182;2023-05-07T07:55:30;14.63;;;11.13;;
12968;SDS011;6549;53.128;8.182;2023-05-07T07:58:31;16.65;;;10.75;;
12968;SDS011;6549;53.128;8.182;2023-05-07T08:01:31;14.95;;;11.38;;
12968;SDS011;6549;53.128;8.182;2023-05-07T08:04:32;14.95;;;10.70;;
12968;SDS011;6549;53.128;8.182;2023-05-07T08:07:33;16.42;;;11.45;;
12968;SDS011;6549;53.128;8.182;2023-05-07T08:10:33;17.55;;;11.55;;
12968;SDS011;6549;53.128;8.182;2023-05-07T08:13:34;15.73;;;11.30;;
12968;SDS011;6549;53.128;8.182;2023-05-07T08:16:35;13.70;;;10.65;;
12968;SDS011;6549;53.128;8.182;2023-05-07T08:19:35;15.07;;;11.40;;
12968;SDS011;6549;53.128;8.182;2023-05-07T08:22:36;15.75;;;11.13;;
12968;SDS011;6549;53.128;8.182;2023-05-07T08:25:37;15.13;;;11.10;;
12968;SDS011;6549;53.128;8.182;2023-05-07T08:28:37;16.98;;;11.25;;
12968;SDS011;6549;53.128;8.182;2023-05-07T08:31:37;14.13;;;10.93;;
12968;SDS011;6549;53.128;8.182;2023-05-07T08:34:41;15.13;;;11.15;;
12968;SDS011;6549;53.128;8.182;2023-05-07T08:37:41;16.02;;;12.45;;
12968;SDS011;6549;53.128;8.182;2023-05-07T08:40:41;14.75;;;12.05;;
12968;SDS011;6549;53.128;8.182;2023-05-07T08:43:42;15.45;;;11.07;;
12968;SDS011;6549;53.128;8.182;2023-05-07T08:46:47;14.25;;;11.77;;
12968;SDS011;6549;53.128;8.182;2023-05-07T08:49:51;16.13;;;12.98;;
12968;SDS011;6549;53.128;8.182;2023-05-07T08:52:53;16.67;;;11.90;;
12968;SDS011;6549;53.128;8.182;2023-05-07T08:55:54;14.95;;;12.23;;
12968;SDS011;6549;53.128;8.182;2023-05-07T08:58:55;14.73;;;11.43;;
12968;SDS011;6549;53.128;8.182;2023-05-07T09:01:58;14.52;;;11.80;;
12968;SDS011;6549;53.128;8.182;2023-05-07T09:04:58;15.90;;;12.00;;
12968;SDS011;6549;53.128;8.182;2023-05-07T09:07:59;14.23;;;11.75;;
12968;SDS011;6549;53.128;8.182;2023-05-07T09:11:01;14.35;;;11.48;;
12968;SDS011;6549;53.128;8.182;2023-05-07T09:14:02;14.35;;;12.02;;
12968;SDS011;6549;53.128;8.182;2023-05-07T09:17:02;12.90;;;11.13;;
12968;SDS011;6549;53.128;8.182;2023-05-07T09:20:03;15.30;;;11.75;;
12968;SDS011;6549;53.128;8.182;2023-05-07T09:23:05;13.23;;;10.67;;
12968;SDS011;6549;53.128;8.182;2023-05-07T09:26:07;13.35;;;10.40;;
12968;SDS011;6549;53.128;8.182;2023-05-07T09:29:11;14.38;;;10.60;;
12968;SDS011;6549;53.128;8.182;2023-05-07T09:32:11;13.90;;;10.90;;
12968;SDS011;6549;53.128;8.182;2023-05-07T09:35:16;14.07;;;10.60;;
12968;SDS011;6549;53.128;8.182;2023-05-07T09:38:17;13.60;;;10.02;;
12968;SDS011;6549;53.128;8.182;2023-05-07T09:41:21;14.68;;;10.38;;
12968;SDS011;6549;53.128;8.182;2023-05-07T09:44:21;12.40;;;10.20;;
12968;SDS011;6549;53.128;8.182;2023-05-07T09:47:23;12.75;;;10.07;;
12968;SDS011;6549;53.128;8.182;2023-05-07T09:50:28;11.25;;;9.77;;
12968;SDS011;6549;53.128;8.182;2023-05-07T09:53:30;11.68;;;10.02;;
12968;SDS011;6549;53.128;8.182;2023-05-07T09:56:31;11.70;;;9.95;;
12968;SDS011;6549;53.128;8.182;2023-05-07T09:59:32;12.88;;;10.10;;
12968;SDS011;6549;53.128;8.182;2023-05-07T10:02:33;11.52;;;10.15;;
12968;SDS011;6549;53.128;8.182;2023-05-07T10:05:35;12.57;;;10.35;;
12968;SDS011;6549;53.128;8.182;2023-05-07T10:08:36;10.50;;;9.40;;
12968;SDS011;6549;53.128;8.182;2023-05-07T10:11:37;11.35;;;10.13;;
12968;SDS011;6549;53.128;8.182;2023-05-07T10:14:39;11.47;;;9.97;;
12968;SDS011;6549;53.128;8.182;2023-05-07T10:17:40;11.63;;;9.60;;
12968;SDS011;6549;53.128;8.182;2023-05-07T10:20:41;12.70;;;9.60;;
12968;SDS011;6549;53.128;8.182;2023-05-07T10:23:48;12.88;;;9.32;;
12968;SDS011;6549;53.128;8.182;2023-05-07T10:26:52;10.30;;;8.57;;
12968;SDS011;6549;53.128;8.182;2023-05-07T10:29:58;11.45;;;9.57;;
12968;SDS011;6549;53.128;8.182;2023-05-07T10:33:08;10.35;;;9.25;;
12968;SDS011;6549;53.128;8.182;2023-05-07T10:36:10;10.82;;;9.63;;
12968;SDS011;6549;53.128;8.182;2023-05-07T10:39:11;11.00;;;9.88;;
12968;SDS011;6549;53.128;8.182;2023-05-07T10:42:12;12.15;;;9.82;;
12968;SDS011;6549;53.128;8.182;2023-05-07T10:45:14;11.35;;;9.40;;
12968;SDS011;6549;53.128;8.182;2023-05-07T10:48:16;12.55;;;10.13;;
12968;SDS011;6549;53.128;8.182;2023-05-07T10:51:20;10.60;;;8.90;;
12968;SDS011;6549;53.128;8.182;2023-05-07T10:54:22;10.07;;;8.68;;
12968;SDS011;6549;53.128;8.182;2023-05-07T11:03:32;11.23;;;9.52;;
12968;SDS011;6549;53.128;8.182;2023-05-07T11:06:32;10.35;;;9.20;;
12968;SDS011;6549;53.128;8.182;2023-05-07T11:13:05;11.00;;;9.23;;
12968;SDS011;6549;53.128;8.182;2023-05-07T11:16:13;11.38;;;9.75;;
12968;SDS011;6549;53.128;8.182;2023-05-07T11:19:17;12.50;;;9.88;;
12968;SDS011;6549;53.128;8.182;2023-05-07T11:22:50;10.67;;;9.17;;
12968;SDS011;6549;53.128;8.182;2023-05-07T11:25:50;12.95;;;9.93;;
12968;SDS011;6549;53.128;8.182;2023-05-07T11:28:50;11.95;;;9.00;;
12968;SDS011;6549;53.128;8.182;2023-05-07T11:31:52;10.52;;;9.43;;
12968;SDS011;6549;53.128;8.182;2023-05-07T11:34:54;12.63;;;10.75;;
12968;SDS011;6549;53.128;8.182;2023-05-07T11:37:59;11.90;;;10.18;;
12968;SDS011;6549;53.128;8.182;2023-05-07T11:41:00;12.23;;;10.73;;
12968;SDS011;6549;53.128;8.182;2023-05-07T11:44:01;11.40;;;9.80;;
12968;SDS011;6549;53.128;8.182;2023-05-07T11:47:02;10.88;;;9.77;;
12968;SDS011;6549;53.128;8.182;2023-05-07T11:50:03;11.23;;;10.02;;
12968;SDS011;6549;53.128;8.182;2023-05-07T11:53:09;13.45;;;10.23;;
12968;SDS011;6549;53.128;8.182;2023-05-07T11:56:10;12.35;;;10.38;;
12968;SDS011;6549;53.128;8.182;2023-05-07T11:59:11;11.68;;;10.07;;
12968;SDS011;6549;53.128;8.182;2023-05-07T12:02:14;12.27;;;10.68;;
12968;SDS011;6549;53.128;8.182;2023-05-07T12:05:15;11.18;;;9.32;;
12968;SDS011;6549;53.128;8.182;2023-05-07T12:08:16;11.00;;;9.60;;
12968;SDS011;6549;53.128;8.182;2023-05-07T12:11:22;12.10;;;10.07;;
12968;SDS011;6549;53.128;8.182;2023-05-07T12:14:26;12.93;;;10.80;;
12968;SDS011;6549;53.128;8.182;2023-05-07T12:17:27;12.65;;;10.25;;
12968;SDS011;6549;53.128;8.182;2023-05-07T12:20:28;11.00;;;9.80;;
12968;SDS011;6549;53.128;8.182;2023-05-07T12:23:28;11.75;;;10.52;;
12968;SDS011;6549;53.128;8.182;2023-05-07T12:26:29;12.73;;;11.02;;
12968;SDS011;6549;53.128;8.182;2023-05-07T12:29:30;11.00;;;9.80;;
12968;SDS011;6549;53.128;8.182;2023-05-07T12:32:30;13.52;;;10.55;;
12968;SDS011;6549;53.128;8.182;2023-05-07T12:35:31;21.27;;;10.90;;
12968;SDS011;6549;53.128;8.182;2023-05-07T12:38:36;12.35;;;11.02;;
12968;SDS011;6549;53.128;8.182;2023-05-07T12:41:57;12.68;;;10.77;;
12968;SDS011;6549;53.128;8.182;2023-05-07T12:44:58;14.70;;;11.10;;
12968;SDS011;6549;53.128;8.182;2023-05-07T12:48:01;12.90;;;11.23;;
12968;SDS011;6549;53.128;8.182;2023-05-07T12:51:02;13.48;;;11.18;;
12968;SDS011;6549;53.128;8.182;2023-05-07T12:54:04;14.25;;;11.00;;
12968;SDS011;6549;53.128;8.182;2023-05-07T12:57:06;14.63;;;10.52;;
12968;SDS011;6549;53.128;8.182;2023-05-07T13:00:09;11.57;;;10.25;;
12968;SDS011;6549;53.128;8.182;2023-05-07T13:03:11;13.77;;;10.80;;
12968;SDS011;6549;53.128;8.182;2023-05-07T13:06:11;12.95;;;10.73;;
12968;SDS011;6549;53.128;8.182;2023-05-07T13:09:14;13.80;;;10.73;;
12968;SDS011;6549;53.128;8.182;2023-05-07T13:12:15;12.07;;;10.05;;
12968;SDS011;6549;53.128;8.182;2023-05-07T13:15:15;12.85;;;10.48;;
12968;SDS011;6549;53.128;8.182;2023-05-07T13:18:16;13.48;;;9.45;;
12968;SDS011;6549;53.128;8.182;2023-05-07T13:21:17;12.88;;;9.50;;
12968;SDS011;6549;53.128;8.182;2023-05-07T13:24:17;10.20;;;8.95;;
12968;SDS011;6549;53.128;8.182;2023-05-07T13:27:18;11.68;;;9.40;;
12968;SDS011;6549;53.128;8.182;2023-05-07T13:30:19;10.32;;;8.48;;
12968;SDS011;6549;53.128;8.182;2023-05-07T13:33:19;10.55;;;8.55;;
12968;SDS011;6549;53.128;8.182;2023-05-07T13:36:20;11.77;;;8.77;;
12968;SDS011;6549;53.128;8.182;2023-05-07T13:39:20;10.02;;;8.38;;
12968;SDS011;6549;53.128;8.182;2023-05-07T13:42:20;10.02;;;8.40;;
12968;SDS011;6549;53.128;8.182;2023-05-07T13:45:21;11.30;;;8.50;;
12968;SDS011;6549;53.128;8.182;2023-05-07T13:48:21;9.98;;;8.68;;
12968;SDS011;6549;53.128;8.182;2023-05-07T13:51:21;9.82;;;7.75;;
12968;SDS011;6549;53.128;8.182;2023-05-07T13:54:22;11.02;;;7.80;;
12968;SDS011;6549;53.128;8.182;2023-05-07T13:57:22;9.60;;;8.60;;
12968;SDS011;6549;53.128;8.182;2023-05-07T14:00:23;10.18;;;7.95;;
12968;SDS011;6549;53.128;8.182;2023-05-07T14:03:24;9.90;;;8.25;;
12968;SDS011;6549;53.128;8.182;2023-05-07T14:06:24;9.40;;;7.93;;
12968;SDS011;6549;53.128;8.182;2023-05-07T14:09:25;8.25;;;7.32;;
12968;SDS011;6549;53.128;8.182;2023-05-07T14:12:25;9.65;;;7.82;;
12968;SDS011;6549;53.128;8.182;2023-05-07T14:15:26;8.63;;;7.57;;
12968;SDS011;6549;53.128;8.182;2023-05-07T14:18:26;9.05;;;7.80;;
12968;SDS011;6549;53.128;8.182;2023-05-07T14:21:28;9.43;;;7.97;;
12968;SDS011;6549;53.128;8.182;2023-05-07T14:24:29;9.18;;;7.93;;
12968;SDS011;6549;53.128;8.182;2023-05-07T14:27:29;10.18;;;8.05;;
12968;SDS011;6549;53.128;8.182;2023-05-07T14:30:29;8.73;;;7.53;;
12968;SDS011;6549;53.128;8.182;2023-05-07T14:33:30;9.07;;;7.78;;
12968;SDS011;6549;53.128;8.182;2023-05-07T14:36:30;9.40;;;7.93;;
12968;SDS011;6549;53.128;8.182;2023-05-07T14:39:31;8.93;;;7.95;;
12968;SDS011;6549;53.128;8.182;2023-05-07T14:42:31;11.07;;;7.60;;
12968;SDS011;6549;53.128;8.182;2023-05-07T14:45:32;8.02;;;7.13;;
12968;SDS011;6549;53.128;8.182;2023-05-07T14:48:32;8.55;;;7.18;;
12968;SDS011;6549;53.128;8.182;2023-05-07T14:51:32;8.02;;;7.10;;
12968;SDS011;6549;53.128;8.182;2023-05-07T14:54:33;7.95;;;7.15;;
12968;SDS011;6549;53.128;8.182;2023-05-07T14:57:35;8.30;;;7.18;;
12968;SDS011;6549;53.128;8.182;2023-05-07T15:00:35;8.40;;;6.90;;
12968;SDS011;6549;53.128;8.182;2023-05-07T15:03:36;7.30;;;6.47;;
12968;SDS011;6549;53.128;8.182;2023-05-07T15:06:36;7.55;;;6.50;;
12968;SDS011;6549;53.128;8.182;2023-05-07T15:09:36;7.63;;;6.00;;
12968;SDS011;6549;53.128;8.182;2023-05-07T15:12:37;7.88;;;6.28;;
12968;SDS011;6549;53.128;8.182;2023-05-07T15:15:41;7.53;;;6.72;;
12968;SDS011;6549;53.128;8.182;2023-05-07T15:18:43;7.47;;;6.65;;
12968;SDS011;6549;53.128;8.182;2023-05-07T15:21:43;7.57;;;6.15;;
12968;SDS011;6549;53.128;8.182;2023-05-07T15:24:44;10.15;;;7.28;;
12968;SDS011;6549;53.128;8.182;2023-05-07T15:27:44;7.65;;;6.85;;
12968;SDS011;6549;53.128;8.182;2023-05-07T15:30:44;8.43;;;7.10;;
12968;SDS011;6549;53.128;8.182;2023-05-07T15:33:45;7.93;;;7.03;;
12968;SDS011;6549;53.128;8.182;2023-05-07T15:36:45;9.27;;;6.70;;
12968;SDS011;6549;53.128;8.182;2023-05-07T15:39:46;9.25;;;6.72;;
12968;SDS011;6549;53.128;8.182;2023-05-07T15:42:46;7.90;;;7.10;;
12968;SDS011;6549;53.128;8.182;2023-05-07T15:45:47;8.35;;;7.50;;
12968;SDS011;6549;53.128;8.182;2023-05-07T15:48:47;8.52;;;7.45;;
12968;SDS011;6549;53.128;8.182;2023-05-07T15:51:47;9.02;;;7.90;;
12968;SDS011;6549;53.128;8.182;2023-05-07T15:54:48;9.50;;;7.90;;
12968;SDS011;6549;53.128;8.182;2023-05-07T15:57:48;8.75;;;7.85;;
12968;SDS011;6549;53.128;8.182;2023-05-07T16:00:48;8.68;;;7.78;;
12968;SDS011;6549;53.128;8.182;2023-05-07T16:03:49;9.68;;;8.43;;
12968;SDS011;6549;53.128;8.182;2023-05-07T16:06:49;8.80;;;7.90;;
12968;SDS011;6549;53.128;8.182;2023-05-07T16:09:49;9.05;;;7.85;;
12968;SDS011;6549;53.128;8.182;2023-05-07T16:12:50;10.50;;;7.85;;
12968;SDS011;6549;53.128;8.182;2023-05-07T16:15:56;10.35;;;8.40;;
12968;SDS011;6549;53.128;8.182;2023-05-07T16:18:59;10.57;;;9.25;;
12968;SDS011;6549;53.128;8.182;2023-05-07T16:22:00;9.07;;;8.02;;
12968;SDS011;6549;53.128;8.182;2023-05-07T16:25:00;9.18;;;8.20;;
12968;SDS011;6549;53.128;8.182;2023-05-07T16:28:01;10.07;;;8.40;;
12968;SDS011;6549;53.128;8.182;2023-05-07T16:31:01;10.45;;;8.55;;
12968;SDS011;6549;53.128;8.182;2023-05-07T16:34:02;9.98;;;8.45;;
12968;SDS011;6549;53.128;8.182;2023-05-07T16:37:02;9.25;;;8.32;;
12968;SDS011;6549;53.128;8.182;2023-05-07T16:40:04;10.38;;;8.07;;
12968;SDS011;6549;53.128;8.182;2023-05-07T16:43:06;9.50;;;7.85;;
12968;SDS011;6549;53.128;8.182;2023-05-07T16:46:06;10.10;;;8.00;;
12968;SDS011;6549;53.128;8.182;2023-05-07T16:49:07;9.38;;;7.93;;
12968;SDS011;6549;53.128;8.182;2023-05-07T16:52:07;9.43;;;8.02;;
12968;SDS011;6549;53.128;8.182;2023-05-07T16:55:07;8.00;;;7.20;;
12968;SDS011;6549;53.128;8.182;2023-05-07T16:58:08;11.65;;;7.95;;
12968;SDS011;6549;53.128;8.182;2023-05-07T17:01:09;9.52;;;8.07;;
12968;SDS011;6549;53.128;8.182;2023-05-07T17:04:11;9.88;;;8.52;;
12968;SDS011;6549;53.128;8.182;2023-05-07T17:07:11;9.60;;;7.90;;
12968;SDS011;6549;53.128;8.182;2023-05-07T17:10:13;12.52;;;8.90;;
12968;SDS011;6549;53.128;8.182;2023-05-07T17:13:14;11.38;;;7.63;;
12968;SDS011;6549;53.128;8.182;2023-05-07T17:16:14;9.65;;;8.20;;
12968;SDS011;6549;53.128;8.182;2023-05-07T17:19:14;9.38;;;8.18;;
12968;SDS011;6549;53.128;8.182;2023-05-07T17:22:15;11.95;;;7.63;;
12968;SDS011;6549;53.128;8.182;2023-05-07T17:25:15;9.77;;;7.45;;
12968;SDS011;6549;53.128;8.182;2023-05-07T17:28:15;15.15;;;13.52;;
12968;SDS011;6549;53.128;8.182;2023-05-07T17:31:16;8.25;;;7.22;;
12968;SDS011;6549;53.128;8.182;2023-05-07T17:34:16;8.88;;;7.72;;
12968;SDS011;6549;53.128;8.182;2023-05-07T17:37:16;7.97;;;7.18;;
12968;SDS011;6549;53.128;8.182;2023-05-07T17:40:18;8.77;;;7.60;;
12968;SDS011;6549;53.128;8.182;2023-05-07T17:43:19;9.18;;;7.25;;
12968;SDS011;6549;53.128;8.182;2023-05-07T17:49:22;9.27;;;7.43;;
12968;SDS011;6549;53.128;8.182;2023-05-07T17:52:22;8.02;;;7.03;;
12968;SDS011;6549;53.128;8.182;2023-05-07T17:55:23;7.88;;;6.88;;
12968;SDS011;6549;53.128;8.182;2023-05-07T17:58:23;8.13;;;7.30;;
12968;SDS011;6549;53.128;8.182;2023-05-07T18:01:25;8.37;;;7.33;;
12968;SDS011;6549;53.128;8.182;2023-05-07T18:04:25;7.82;;;6.90;;
12968;SDS011;6549;53.128;8.182;2023-05-07T18:07:27;9.02;;;7.47;;
12968;SDS011;6549;53.128;8.182;2023-05-07T18:10:27;9.05;;;7.25;;
12968;SDS011;6549;53.128;8.182;2023-05-07T18:13:27;10.55;;;7.70;;
12968;SDS011;6549;53.128;8.182;2023-05-07T18:16:28;7.95;;;6.78;;
12968;SDS011;6549;53.128;8.182;2023-05-07T18:19:28;8.90;;;6.65;;
12968;SDS011;6549;53.128;8.182;2023-05-07T18:22:28;8.27;;;7.47;;